createdAt,value
2022-10-05T00:05:03.578Z,88.5
2022-10-05T00:10:10.929Z,88.5
2022-10-05T00:15:18.285Z,89
2022-10-05T00:20:25.693Z,89
2022-10-05T00:25:33.044Z,89
2022-10-05T00:30:40.400Z,88
2022-10-05T00:35:47.793Z,88.5
2022-10-05T00:40:55.166Z,88.5
2022-10-05T00:46:02.552Z,89
2022-10-05T00:51:09.918Z,88
2022-10-05T00:56:17.287Z,88
2022-10-05T01:01:24.653Z,88.5
2022-10-05T01:06:32.065Z,88.5
2022-10-05T01:11:39.396Z,88.5
2022-10-05T01:16:46.766Z,89.5
2022-10-05T01:21:54.133Z,89
2022-10-05T01:27:01.645Z,89.5
2022-10-05T01:32:09.175Z,89.5
2022-10-05T01:37:16.705Z,89.5
2022-10-05T01:42:24.257Z,89.5
2022-10-05T01:47:31.794Z,90
2022-10-05T01:52:39.318Z,89.5
2022-10-05T01:57:46.853Z,90
2022-10-05T02:02:54.410Z,89
2022-10-05T02:08:01.965Z,90
2022-10-05T02:13:09.555Z,90
2022-10-05T02:18:17.057Z,90.5
2022-10-05T02:23:24.700Z,90.5
2022-10-05T02:28:32.154Z,89.5
2022-10-05T02:33:39.955Z,89.5
2022-10-05T02:38:47.696Z,89
2022-10-05T02:43:55.477Z,90.5
2022-10-05T02:49:03.285Z,89.5
2022-10-05T02:54:10.978Z,89
2022-10-05T02:59:18.759Z,89.5
2022-10-05T03:04:26.534Z,89.5
2022-10-05T03:09:34.276Z,88.5
2022-10-05T03:14:42.044Z,88
2022-10-05T03:19:49.801Z,88
2022-10-05T03:24:57.569Z,89
2022-10-05T03:30:05.344Z,88.5
2022-10-05T03:35:13.136Z,88.5
2022-10-05T03:40:21.463Z,88
2022-10-05T03:45:28.293Z,87.5
2022-10-05T03:50:35.560Z,88
2022-10-05T03:55:42.880Z,87.5
2022-10-05T04:00:50.170Z,87.5
2022-10-05T04:05:57.529Z,88
2022-10-05T04:11:04.768Z,88.5
2022-10-05T04:16:12.078Z,88.5
2022-10-05T04:21:19.380Z,89
2022-10-05T04:26:26.620Z,88.5
2022-10-05T04:31:33.937Z,87.5
2022-10-05T04:36:41.250Z,88
2022-10-05T04:41:48.560Z,88.5
2022-10-05T04:46:55.804Z,89.5
2022-10-05T04:52:03.142Z,89.5
2022-10-05T04:57:10.361Z,89.5
2022-10-05T05:02:17.669Z,89
2022-10-05T05:07:24.936Z,89
2022-10-05T05:12:32.184Z,89
2022-10-05T05:17:39.458Z,88.5
2022-10-05T05:22:46.723Z,88.5
2022-10-05T05:27:54.083Z,89
2022-10-05T05:33:01.288Z,89.5
2022-10-05T05:38:08.578Z,90
2022-10-05T05:43:15.835Z,88.5
2022-10-05T05:48:23.120Z,88
2022-10-05T05:53:30.556Z,88.5
2022-10-05T05:58:37.807Z,87
2022-10-05T06:03:45.250Z,86.5
2022-10-05T06:08:52.451Z,86
2022-10-05T06:13:59.769Z,87.5
2022-10-05T06:19:07.131Z,86.5
2022-10-05T06:24:14.280Z,86
2022-10-05T06:29:21.662Z,85
2022-10-05T06:34:28.852Z,84.5
2022-10-05T06:39:36.143Z,83.5
2022-10-05T06:44:43.429Z,83
2022-10-05T06:49:50.627Z,80
2022-10-05T06:54:57.895Z,80.5
2022-10-05T07:00:05.228Z,80
2022-10-05T07:05:12.434Z,80
2022-10-05T07:10:19.771Z,76
2022-10-05T07:15:27.025Z,73.5
2022-10-05T07:20:34.274Z,75.5
2022-10-05T07:25:41.505Z,79
2022-10-05T07:30:48.716Z,79.5
2022-10-05T07:35:55.986Z,80.5
2022-10-05T07:41:03.288Z,76.5
2022-10-05T07:46:10.536Z,77
2022-10-05T07:51:17.805Z,72.5
2022-10-05T07:56:25.051Z,73.5
2022-10-05T08:01:32.233Z,74.5
2022-10-05T08:06:39.877Z,68
2022-10-05T08:11:47.144Z,73
2022-10-05T08:16:54.545Z,73.5
2022-10-05T08:22:02.023Z,68.5
2022-10-05T08:27:09.270Z,66
2022-10-05T08:32:16.607Z,69.5
2022-10-05T08:37:23.966Z,71.5
2022-10-05T08:42:31.339Z,68
2022-10-05T08:47:38.662Z,67
2022-10-05T08:52:46.018Z,64.5
2022-10-05T08:57:53.276Z,68.5
2022-10-05T09:03:00.525Z,64
2022-10-05T09:08:07.834Z,64
2022-10-05T09:13:15.791Z,69.5
2022-10-05T09:18:22.156Z,68.5
2022-10-05T09:23:29.147Z,70.5
2022-10-05T09:28:35.969Z,69.5
2022-10-05T09:33:42.883Z,59.5
2022-10-05T09:38:49.789Z,60.5
2022-10-05T09:43:56.628Z,58
2022-10-05T09:49:03.543Z,60
2022-10-05T09:54:10.281Z,56.5
2022-10-05T09:59:17.106Z,60
2022-10-05T10:04:23.891Z,60
2022-10-05T10:09:30.742Z,59.5
2022-10-05T10:14:37.521Z,57.5
2022-10-05T10:19:44.418Z,61
2022-10-05T10:24:51.197Z,58.5
2022-10-05T10:29:57.996Z,57.5
2022-10-05T10:35:04.842Z,60.5
2022-10-05T10:40:11.705Z,58.5
2022-10-05T10:45:18.448Z,59
2022-10-05T10:50:25.226Z,54
2022-10-05T10:55:32.543Z,57
2022-10-05T11:00:38.762Z,56
2022-10-05T11:05:45.507Z,53
2022-10-05T11:10:52.299Z,54.5
2022-10-05T11:15:59.030Z,55.5
2022-10-05T11:21:05.799Z,53
2022-10-05T11:26:12.702Z,55
2022-10-05T11:31:19.687Z,56
2022-10-05T11:36:26.521Z,55
2022-10-05T11:41:33.400Z,55
2022-10-05T11:46:40.354Z,61
2022-10-05T11:51:47.204Z,57
2022-10-05T11:56:54.111Z,59.5
2022-10-05T12:02:01.046Z,55.5
2022-10-05T12:07:08.042Z,59
2022-10-05T12:12:14.829Z,57
2022-10-05T12:17:21.713Z,57.5
2022-10-05T12:22:28.601Z,55.5
2022-10-05T12:27:35.474Z,56.5
2022-10-05T12:32:42.756Z,57.5
2022-10-05T12:37:49.670Z,57.5
2022-10-05T12:42:56.743Z,56
2022-10-05T12:48:03.840Z,60
2022-10-05T12:53:10.869Z,55.5
2022-10-05T12:58:18.006Z,56
2022-10-05T13:03:25.015Z,58.5
2022-10-05T13:08:32.072Z,56
2022-10-05T13:13:39.152Z,55.5
2022-10-05T13:18:46.196Z,58.5
2022-10-05T13:23:53.226Z,58
2022-10-05T13:29:00.229Z,55.5
2022-10-05T13:34:07.271Z,53.5
2022-10-05T13:39:14.912Z,57
2022-10-05T13:44:22.546Z,56.5
2022-10-05T13:49:30.169Z,57
2022-10-05T13:54:37.789Z,57.5
2022-10-05T13:59:45.360Z,56.5
2022-10-05T14:04:53.019Z,52
2022-10-05T14:10:00.590Z,53.5
2022-10-05T14:15:08.159Z,55.5
2022-10-05T14:20:15.786Z,57
2022-10-05T14:25:23.396Z,54
2022-10-05T14:30:29.491Z,52.5
2022-10-05T14:35:35.966Z,55
2022-10-05T14:40:42.501Z,54.5
2022-10-05T14:45:49.034Z,55
2022-10-05T14:50:55.553Z,55
2022-10-05T14:56:02.108Z,59.5
2022-10-05T15:01:08.663Z,57.5
2022-10-05T15:06:15.259Z,66
2022-10-05T15:11:22.010Z,66.5
2022-10-05T15:16:28.602Z,65.5
2022-10-05T15:21:35.387Z,67.5
2022-10-05T15:26:42.124Z,66
2022-10-05T15:31:48.894Z,60.5
2022-10-05T15:36:55.621Z,66
2022-10-05T15:42:02.372Z,59.5
2022-10-05T15:47:09.030Z,63
2022-10-05T15:52:15.743Z,68
2022-10-05T15:57:22.495Z,68
2022-10-05T16:02:29.234Z,68.5
2022-10-05T16:07:36.032Z,69.5
2022-10-05T16:12:42.882Z,71
2022-10-05T16:17:49.769Z,72
2022-10-05T16:22:56.605Z,73
2022-10-05T16:28:03.480Z,72
2022-10-05T16:33:10.423Z,72.5
2022-10-05T16:38:17.424Z,73
2022-10-05T16:43:24.421Z,73.5
2022-10-05T16:48:31.465Z,73
2022-10-05T16:53:38.471Z,73
2022-10-05T16:58:45.482Z,73.5
2022-10-05T17:03:52.516Z,73
2022-10-05T17:08:59.565Z,72
2022-10-05T17:14:06.591Z,73
2022-10-05T17:19:13.665Z,73.5
2022-10-05T17:24:20.735Z,73.5
2022-10-05T17:29:27.778Z,73
2022-10-05T17:34:34.903Z,72.5
2022-10-05T17:39:42.004Z,73.5
2022-10-05T17:44:49.236Z,72
2022-10-05T17:49:56.448Z,71.5
2022-10-05T17:55:03.654Z,72
2022-10-05T18:00:10.893Z,72
2022-10-05T18:05:18.080Z,73
2022-10-05T18:10:25.260Z,72.5
2022-10-05T18:15:32.480Z,73
2022-10-05T18:20:39.705Z,72.5
2022-10-05T18:25:46.870Z,73
2022-10-05T18:30:54.089Z,73
2022-10-05T18:36:01.261Z,74
2022-10-05T18:41:08.478Z,74
2022-10-05T18:46:15.662Z,75
2022-10-05T18:51:23.140Z,74.5
2022-10-05T18:56:30.606Z,75.5
2022-10-05T19:01:38.071Z,75.5
2022-10-05T19:06:45.485Z,77
2022-10-05T19:11:52.984Z,77
2022-10-05T19:17:00.407Z,77
2022-10-05T19:22:07.900Z,77
2022-10-05T19:27:15.413Z,76
2022-10-05T19:32:22.902Z,77
2022-10-05T19:37:30.389Z,76.5
2022-10-05T19:42:37.839Z,77
2022-10-05T19:47:45.309Z,77.5
2022-10-05T19:52:52.756Z,77.5
2022-10-05T19:58:00.844Z,79.5
2022-10-05T20:03:07.454Z,79
2022-10-05T20:08:14.539Z,79.5
2022-10-05T20:13:21.540Z,78.5
2022-10-05T20:18:28.567Z,80
2022-10-05T20:23:35.564Z,79.5
2022-10-05T20:28:42.599Z,80.5
2022-10-05T20:33:49.612Z,79.5
2022-10-05T20:38:56.620Z,80.5
2022-10-05T20:44:03.695Z,81
2022-10-05T20:49:10.774Z,81.5
2022-10-05T20:54:17.849Z,81.5
2022-10-05T20:59:24.964Z,82
2022-10-05T21:04:32.001Z,81.5
2022-10-05T21:09:39.048Z,81.5
2022-10-05T21:14:46.132Z,81.5
2022-10-05T21:19:53.119Z,81.5
2022-10-05T21:25:00.123Z,82.5
2022-10-05T21:30:07.159Z,83.5
2022-10-05T21:35:14.220Z,83.5
2022-10-05T21:40:21.249Z,82
2022-10-05T21:45:28.299Z,82
2022-10-05T21:55:42.375Z,82
2022-10-05T22:00:50.888Z,83
2022-10-05T22:05:56.426Z,83.5
2022-10-05T22:11:03.604Z,82.5
2022-10-05T22:16:10.694Z,83
2022-10-05T22:21:17.854Z,83.5
2022-10-05T22:26:25.084Z,83
2022-10-05T22:31:32.211Z,82
2022-10-05T22:36:39.334Z,82.5
2022-10-05T22:41:46.518Z,83.5
2022-10-05T22:46:53.623Z,83
2022-10-05T22:52:00.773Z,83.5
2022-10-05T22:57:07.885Z,84
2022-10-05T23:02:15.036Z,83.5
2022-10-05T23:07:22.132Z,84.5
2022-10-05T23:12:29.266Z,85.5
2022-10-05T23:17:36.543Z,86
2022-10-05T23:22:43.814Z,86
2022-10-05T23:27:51.143Z,87
2022-10-05T23:32:58.403Z,86.5
2022-10-05T23:38:05.696Z,87.5
2022-10-05T23:43:13.020Z,87
2022-10-05T23:48:20.439Z,87
2022-10-05T23:53:27.685Z,87
2022-10-05T23:58:34.962Z,86.5
